Terminal Aerodrome Forecast
Issued by NWS

Home | Current Version | Previous Version | Graphics & Text | Print | Product List | Glossary On
Versions: 1 2 3 4 5 6 7 8 9 10 11 12 13 14 15 16 17 18 19 20 21 22 23 24
982
FTUS43 KGRB 290520
TAFMTW
TAF
KMTW 290520Z 2906/3006 18009KT P6SM SCT080 BKN150
     FM291000 19008KT P6SM SCT035 BKN070
     FM291500 21011KT P6SM -SHRA BKN035
     FM292000 24012KT P6SM VCSH BKN045
     FM300000 27010KT P6SM SCT050
     FM300200 26008KT P6SM SCT200=

USA.gov is the U.S. government's official web portal to all federal, state and local government web resources and services.